sensor_id;sensor_type;location;lat;lon;timestamp;P1;durP1;ratioP1;P2;durP2;ratioP2
77402;SDS011;66472;53.046;8.656;2023-05-10T00:00:49;48.20;;;44.63;;
77402;SDS011;66472;53.046;8.656;2023-05-10T00:05:57;48.03;;;44.53;;
77402;SDS011;66472;53.046;8.656;2023-05-10T00:10:52;49.70;;;46.00;;
77402;SDS011;66472;53.046;8.656;2023-05-10T00:15:48;47.93;;;44.57;;
77402;SDS011;66472;53.046;8.656;2023-05-10T00:20:43;45.90;;;42.50;;
77402;SDS011;66472;53.046;8.656;2023-05-10T00:25:40;49.17;;;45.67;;
77402;SDS011;66472;53.046;8.656;2023-05-10T00:30:36;49.87;;;46.23;;
77402;SDS011;66472;53.046;8.656;2023-05-10T00:35:31;48.73;;;44.70;;
77402;SDS011;66472;53.046;8.656;2023-05-10T00:40:27;45.33;;;42.13;;
77402;SDS011;66472;53.046;8.656;2023-05-10T00:45:27;40.20;;;37.40;;
77402;SDS011;66472;53.046;8.656;2023-05-10T00:50:23;29.83;;;27.33;;
77402;SDS011;66472;53.046;8.656;2023-05-10T00:55:18;31.60;;;29.20;;
77402;SDS011;66472;53.046;8.656;2023-05-10T01:00:13;24.17;;;22.47;;
77402;SDS011;66472;53.046;8.656;2023-05-10T01:05:13;21.13;;;19.33;;
77402;SDS011;66472;53.046;8.656;2023-05-10T01:10:08;21.50;;;19.80;;
77402;SDS011;66472;53.046;8.656;2023-05-10T01:15:08;19.87;;;18.43;;
77402;SDS011;66472;53.046;8.656;2023-05-10T01:20:04;20.53;;;19.03;;
77402;SDS011;66472;53.046;8.656;2023-05-10T01:25:11;23.37;;;21.47;;
77402;SDS011;66472;53.046;8.656;2023-05-10T01:40:30;22.83;;;21.03;;
77402;SDS011;66472;53.046;8.656;2023-05-10T01:45:29;17.57;;;16.30;;
77402;SDS011;66472;53.046;8.656;2023-05-10T01:50:27;14.83;;;13.37;;
77402;SDS011;66472;53.046;8.656;2023-05-10T01:55:25;13.20;;;12.23;;
77402;SDS011;66472;53.046;8.656;2023-05-10T02:00:21;16.03;;;14.63;;
77402;SDS011;66472;53.046;8.656;2023-05-10T02:05:20;13.87;;;12.73;;
77402;SDS011;66472;53.046;8.656;2023-05-10T02:10:16;13.77;;;12.77;;
77402;SDS011;66472;53.046;8.656;2023-05-10T02:15:14;15.10;;;14.07;;
77402;SDS011;66472;53.046;8.656;2023-05-10T02:20:10;12.70;;;11.80;;
77402;SDS011;66472;53.046;8.656;2023-05-10T02:25:06;13.63;;;12.63;;
77402;SDS011;66472;53.046;8.656;2023-05-10T02:30:04;14.77;;;13.67;;
77402;SDS011;66472;53.046;8.656;2023-05-10T02:35:00;15.80;;;14.70;;
77402;SDS011;66472;53.046;8.656;2023-05-10T02:39:56;15.27;;;14.17;;
77402;SDS011;66472;53.046;8.656;2023-05-10T02:44:56;17.30;;;15.87;;
77402;SDS011;66472;53.046;8.656;2023-05-10T02:49:54;13.03;;;12.13;;
77402;SDS011;66472;53.046;8.656;2023-05-10T02:54:50;15.80;;;14.63;;
77402;SDS011;66472;53.046;8.656;2023-05-10T02:59:47;17.40;;;15.97;;
77402;SDS011;66472;53.046;8.656;2023-05-10T03:04:42;17.40;;;16.07;;
77402;SDS011;66472;53.046;8.656;2023-05-10T03:09:38;16.87;;;13.70;;
77402;SDS011;66472;53.046;8.656;2023-05-10T03:20:06;18.73;;;17.43;;
77402;SDS011;66472;53.046;8.656;2023-05-10T03:25:11;16.90;;;15.70;;
77402;SDS011;66472;53.046;8.656;2023-05-10T03:30:31;18.23;;;16.87;;
77402;SDS011;66472;53.046;8.656;2023-05-10T03:35:29;20.33;;;18.90;;
77402;SDS011;66472;53.046;8.656;2023-05-10T03:40:25;25.90;;;23.63;;
77402;SDS011;66472;53.046;8.656;2023-05-10T03:45:24;25.93;;;24.13;;
77402;SDS011;66472;53.046;8.656;2023-05-10T03:50:20;22.70;;;20.93;;
77402;SDS011;66472;53.046;8.656;2023-05-10T03:55:16;24.60;;;22.67;;
77402;SDS011;66472;53.046;8.656;2023-05-10T04:00:12;19.20;;;15.90;;
77402;SDS011;66472;53.046;8.656;2023-05-10T04:05:10;20.80;;;19.30;;
77402;SDS011;66472;53.046;8.656;2023-05-10T04:10:05;23.47;;;21.57;;
77402;SDS011;66472;53.046;8.656;2023-05-10T04:15:01;23.43;;;21.53;;
77402;SDS011;66472;53.046;8.656;2023-05-10T04:19:56;22.77;;;21.20;;
77402;SDS011;66472;53.046;8.656;2023-05-10T04:24:52;25.33;;;23.53;;
77402;SDS011;66472;53.046;8.656;2023-05-10T04:29:48;23.97;;;22.30;;
77402;SDS011;66472;53.046;8.656;2023-05-10T04:34:43;27.77;;;25.50;;
77402;SDS011;66472;53.046;8.656;2023-05-10T04:39:38;23.17;;;21.17;;
77402;SDS011;66472;53.046;8.656;2023-05-10T04:44:34;29.20;;;26.93;;
77402;SDS011;66472;53.046;8.656;2023-05-10T04:49:29;29.10;;;26.93;;
77402;SDS011;66472;53.046;8.656;2023-05-10T04:54:26;30.03;;;27.87;;
77402;SDS011;66472;53.046;8.656;2023-05-10T04:59:21;37.73;;;35.27;;
77402;SDS011;66472;53.046;8.656;2023-05-10T05:04:20;32.90;;;30.43;;
77402;SDS011;66472;53.046;8.656;2023-05-10T05:09:18;38.47;;;35.63;;
77402;SDS011;66472;53.046;8.656;2023-05-10T05:14:24;32.70;;;30.60;;
77402;SDS011;66472;53.046;8.656;2023-05-10T05:19:22;36.17;;;33.30;;
77402;SDS011;66472;53.046;8.656;2023-05-10T05:25:12;40.33;;;37.27;;
77402;SDS011;66472;53.046;8.656;2023-05-10T05:30:43;41.30;;;38.20;;
77402;SDS011;66472;53.046;8.656;2023-05-10T05:35:39;49.80;;;46.37;;
77402;SDS011;66472;53.046;8.656;2023-05-10T05:40:44;55.57;;;51.60;;
77402;SDS011;66472;53.046;8.656;2023-05-10T05:45:42;50.87;;;47.47;;
77402;SDS011;66472;53.046;8.656;2023-05-10T05:50:37;47.50;;;44.43;;
77402;SDS011;66472;53.046;8.656;2023-05-10T05:55:32;41.63;;;38.83;;
77402;SDS011;66472;53.046;8.656;2023-05-10T06:00:27;40.10;;;37.27;;
77402;SDS011;66472;53.046;8.656;2023-05-10T06:05:23;46.13;;;43.07;;
77402;SDS011;66472;53.046;8.656;2023-05-10T06:10:18;56.67;;;53.10;;
77402;SDS011;66472;53.046;8.656;2023-05-10T06:15:13;56.67;;;53.13;;
77402;SDS011;66472;53.046;8.656;2023-05-10T06:20:09;56.20;;;52.80;;
77402;SDS011;66472;53.046;8.656;2023-05-10T06:25:04;62.00;;;58.27;;
77402;SDS011;66472;53.046;8.656;2023-05-10T06:30:00;58.67;;;55.20;;
77402;SDS011;66472;53.046;8.656;2023-05-10T06:34:55;60.07;;;56.40;;
77402;SDS011;66472;53.046;8.656;2023-05-10T06:39:50;46.70;;;43.97;;
77402;SDS011;66472;53.046;8.656;2023-05-10T06:44:45;40.70;;;38.43;;
77402;SDS011;66472;53.046;8.656;2023-05-10T06:49:40;41.57;;;39.17;;
77402;SDS011;66472;53.046;8.656;2023-05-10T06:54:36;35.40;;;33.50;;
77402;SDS011;66472;53.046;8.656;2023-05-10T06:59:31;32.72;;;30.83;;
77402;SDS011;66472;53.046;8.656;2023-05-10T07:04:26;32.67;;;30.90;;
77402;SDS011;66472;53.046;8.656;2023-05-10T07:09:21;33.13;;;31.33;;
77402;SDS011;66472;53.046;8.656;2023-05-10T07:14:17;34.17;;;32.27;;
77402;SDS011;66472;53.046;8.656;2023-05-10T07:19:12;36.63;;;34.50;;
77402;SDS011;66472;53.046;8.656;2023-05-10T07:24:07;34.60;;;32.57;;
77402;SDS011;66472;53.046;8.656;2023-05-10T07:29:02;38.80;;;36.60;;
77402;SDS011;66472;53.046;8.656;2023-05-10T07:33:58;39.40;;;37.10;;
77402;SDS011;66472;53.046;8.656;2023-05-10T07:38:53;42.03;;;39.57;;
77402;SDS011;66472;53.046;8.656;2023-05-10T07:43:48;38.20;;;35.90;;
77402;SDS011;66472;53.046;8.656;2023-05-10T07:48:43;44.33;;;41.73;;
77402;SDS011;66472;53.046;8.656;2023-05-10T07:53:39;36.67;;;34.60;;
77402;SDS011;66472;53.046;8.656;2023-05-10T07:58:34;35.00;;;33.00;;
77402;SDS011;66472;53.046;8.656;2023-05-10T08:03:32;39.03;;;36.87;;
77402;SDS011;66472;53.046;8.656;2023-05-10T08:08:28;36.83;;;34.70;;
77402;SDS011;66472;53.046;8.656;2023-05-10T08:13:23;28.90;;;27.37;;
77402;SDS011;66472;53.046;8.656;2023-05-10T08:18:19;26.70;;;25.17;;
77402;SDS011;66472;53.046;8.656;2023-05-10T08:23:14;26.47;;;24.97;;
77402;SDS011;66472;53.046;8.656;2023-05-10T08:28:09;23.53;;;22.20;;
77402;SDS011;66472;53.046;8.656;2023-05-10T08:33:04;19.67;;;18.47;;
77402;SDS011;66472;53.046;8.656;2023-05-10T08:38:00;18.13;;;17.13;;
77402;SDS011;66472;53.046;8.656;2023-05-10T08:42:58;14.43;;;13.63;;
77402;SDS011;66472;53.046;8.656;2023-05-10T08:47:56;11.23;;;10.63;;
77402;SDS011;66472;53.046;8.656;2023-05-10T08:52:52;11.87;;;11.10;;
77402;SDS011;66472;53.046;8.656;2023-05-10T08:57:47;12.53;;;11.73;;
77402;SDS011;66472;53.046;8.656;2023-05-10T09:02:43;10.45;;;9.75;;
77402;SDS011;66472;53.046;8.656;2023-05-10T09:07:39;10.33;;;9.73;;
77402;SDS011;66472;53.046;8.656;2023-05-10T09:12:34;11.23;;;10.33;;
77402;SDS011;66472;53.046;8.656;2023-05-10T09:17:30;13.33;;;12.53;;
77402;SDS011;66472;53.046;8.656;2023-05-10T09:22:26;12.83;;;11.93;;
77402;SDS011;66472;53.046;8.656;2023-05-10T09:27:27;13.50;;;12.70;;
77402;SDS011;66472;53.046;8.656;2023-05-10T09:32:35;13.07;;;12.17;;
77402;SDS011;66472;53.046;8.656;2023-05-10T09:37:30;12.93;;;12.13;;
77402;SDS011;66472;53.046;8.656;2023-05-10T09:42:25;13.80;;;12.90;;
77402;SDS011;66472;53.046;8.656;2023-05-10T09:47:21;13.30;;;12.45;;
77402;SDS011;66472;53.046;8.656;2023-05-10T09:52:16;8.60;;;7.93;;
77402;SDS011;66472;53.046;8.656;2023-05-10T09:57:18;12.90;;;12.10;;
77402;SDS011;66472;53.046;8.656;2023-05-10T10:02:13;10.93;;;10.17;;
77402;SDS011;66472;53.046;8.656;2023-05-10T10:07:09;14.17;;;13.30;;
77402;SDS011;66472;53.046;8.656;2023-05-10T10:12:04;10.60;;;9.80;;
77402;SDS011;66472;53.046;8.656;2023-05-10T10:17:00;14.20;;;13.10;;
77402;SDS011;66472;53.046;8.656;2023-05-10T10:21:55;11.20;;;10.40;;
77402;SDS011;66472;53.046;8.656;2023-05-10T10:26:51;9.47;;;8.57;;
77402;SDS011;66472;53.046;8.656;2023-05-10T10:31:51;10.00;;;9.30;;
77402;SDS011;66472;53.046;8.656;2023-05-10T10:36:49;9.00;;;8.17;;
77402;SDS011;66472;53.046;8.656;2023-05-10T10:41:49;7.32;;;6.82;;
77402;SDS011;66472;53.046;8.656;2023-05-10T10:47:04;8.10;;;7.67;;
77402;SDS011;66472;53.046;8.656;2023-05-10T10:57:18;9.67;;;9.07;;
77402;SDS011;66472;53.046;8.656;2023-05-10T11:02:33;9.40;;;8.80;;
77402;SDS011;66472;53.046;8.656;2023-05-10T11:07:29;8.73;;;8.17;;
77402;SDS011;66472;53.046;8.656;2023-05-10T11:12:24;9.20;;;8.50;;
77402;SDS011;66472;53.046;8.656;2023-05-10T11:17:29;8.87;;;7.57;;
77402;SDS011;66472;53.046;8.656;2023-05-10T11:22:25;7.77;;;7.30;;
77402;SDS011;66472;53.046;8.656;2023-05-10T11:27:20;8.07;;;7.57;;
77402;SDS011;66472;53.046;8.656;2023-05-10T11:32:16;8.60;;;7.93;;
77402;SDS011;66472;53.046;8.656;2023-05-10T11:37:11;8.47;;;8.07;;
77402;SDS011;66472;53.046;8.656;2023-05-10T11:42:06;14.10;;;13.40;;
77402;SDS011;66472;53.046;8.656;2023-05-10T11:47:04;28.00;;;26.67;;
77402;SDS011;66472;53.046;8.656;2023-05-10T11:52:06;28.07;;;26.67;;
77402;SDS011;66472;53.046;8.656;2023-05-10T11:57:02;14.23;;;13.53;;
77402;SDS011;66472;53.046;8.656;2023-05-10T12:01:58;15.10;;;14.40;;
77402;SDS011;66472;53.046;8.656;2023-05-10T12:06:53;12.03;;;11.23;;
77402;SDS011;66472;53.046;8.656;2023-05-10T12:11:48;13.73;;;13.10;;
77402;SDS011;66472;53.046;8.656;2023-05-10T12:16:43;12.03;;;11.43;;
77402;SDS011;66472;53.046;8.656;2023-05-10T12:21:39;11.67;;;11.07;;
77402;SDS011;66472;53.046;8.656;2023-05-10T12:26:36;13.97;;;13.27;;
77402;SDS011;66472;53.046;8.656;2023-05-10T12:31:31;11.13;;;10.63;;
77402;SDS011;66472;53.046;8.656;2023-05-10T12:36:27;11.80;;;11.20;;
77402;SDS011;66472;53.046;8.656;2023-05-10T12:41:22;9.17;;;8.67;;
77402;SDS011;66472;53.046;8.656;2023-05-10T12:46:17;8.97;;;8.47;;
77402;SDS011;66472;53.046;8.656;2023-05-10T12:51:13;7.67;;;7.27;;
77402;SDS011;66472;53.046;8.656;2023-05-10T12:56:12;7.90;;;7.40;;
77402;SDS011;66472;53.046;8.656;2023-05-10T13:01:07;8.80;;;8.20;;
77402;SDS011;66472;53.046;8.656;2023-05-10T13:06:03;7.67;;;7.27;;
77402;SDS011;66472;53.046;8.656;2023-05-10T13:10:59;7.00;;;6.60;;
77402;SDS011;66472;53.046;8.656;2023-05-10T13:15:54;7.53;;;7.13;;
77402;SDS011;66472;53.046;8.656;2023-05-10T13:20:49;9.17;;;8.67;;
77402;SDS011;66472;53.046;8.656;2023-05-10T13:25:45;8.57;;;8.07;;
77402;SDS011;66472;53.046;8.656;2023-05-10T13:30:40;9.37;;;8.77;;
77402;SDS011;66472;53.046;8.656;2023-05-10T13:35:36;9.17;;;8.67;;
77402;SDS011;66472;53.046;8.656;2023-05-10T13:40:31;8.10;;;7.60;;
77402;SDS011;66472;53.046;8.656;2023-05-10T13:45:26;8.00;;;7.60;;
77402;SDS011;66472;53.046;8.656;2023-05-10T13:50:22;8.13;;;7.63;;
77402;SDS011;66472;53.046;8.656;2023-05-10T13:55:17;8.17;;;7.60;;
77402;SDS011;66472;53.046;8.656;2023-05-10T14:00:13;10.47;;;9.87;;
77402;SDS011;66472;53.046;8.656;2023-05-10T14:05:08;12.07;;;11.17;;
77402;SDS011;66472;53.046;8.656;2023-05-10T14:10:03;7.77;;;7.30;;
77402;SDS011;66472;53.046;8.656;2023-05-10T14:14:59;7.30;;;6.90;;
77402;SDS011;66472;53.046;8.656;2023-05-10T14:19:54;6.87;;;6.57;;
77402;SDS011;66472;53.046;8.656;2023-05-10T14:24:49;7.82;;;7.43;;
77402;SDS011;66472;53.046;8.656;2023-05-10T14:29:45;7.05;;;6.65;;
77402;SDS011;66472;53.046;8.656;2023-05-10T14:34:40;6.43;;;6.03;;
77402;SDS011;66472;53.046;8.656;2023-05-10T14:39:35;7.40;;;7.00;;
77402;SDS011;66472;53.046;8.656;2023-05-10T14:44:30;7.10;;;6.43;;
77402;SDS011;66472;53.046;8.656;2023-05-10T14:49:26;7.83;;;7.37;;
77402;SDS011;66472;53.046;8.656;2023-05-10T14:54:21;8.48;;;7.93;;
77402;SDS011;66472;53.046;8.656;2023-05-10T14:59:17;6.43;;;6.03;;
77402;SDS011;66472;53.046;8.656;2023-05-10T15:04:12;7.10;;;6.60;;
77402;SDS011;66472;53.046;8.656;2023-05-10T15:09:08;6.72;;;6.35;;
77402;SDS011;66472;53.046;8.656;2023-05-10T15:14:03;12.95;;;7.93;;
77402;SDS011;66472;53.046;8.656;2023-05-10T15:18:59;6.40;;;6.10;;
77402;SDS011;66472;53.046;8.656;2023-05-10T15:23:54;6.83;;;6.43;;
77402;SDS011;66472;53.046;8.656;2023-05-10T15:28:49;9.40;;;8.90;;
77402;SDS011;66472;53.046;8.656;2023-05-10T15:33:45;7.20;;;6.60;;
77402;SDS011;66472;53.046;8.656;2023-05-10T15:38:40;7.80;;;7.33;;
77402;SDS011;66472;53.046;8.656;2023-05-10T15:43:35;6.93;;;6.50;;
77402;SDS011;66472;53.046;8.656;2023-05-10T15:48:31;6.47;;;5.97;;
77402;SDS011;66472;53.046;8.656;2023-05-10T15:53:26;7.03;;;6.57;;
77402;SDS011;66472;53.046;8.656;2023-05-10T15:58:21;5.30;;;5.07;;
77402;SDS011;66472;53.046;8.656;2023-05-10T16:03:17;4.90;;;4.60;;
77402;SDS011;66472;53.046;8.656;2023-05-10T16:08:12;5.63;;;5.37;;
77402;SDS011;66472;53.046;8.656;2023-05-10T16:13:07;7.93;;;6.43;;
77402;SDS011;66472;53.046;8.656;2023-05-10T16:18:02;6.95;;;6.55;;
77402;SDS011;66472;53.046;8.656;2023-05-10T16:23:00;5.50;;;5.10;;
77402;SDS011;66472;53.046;8.656;2023-05-10T16:27:57;5.63;;;5.27;;
77402;SDS011;66472;53.046;8.656;2023-05-10T16:32:52;5.87;;;5.53;;
77402;SDS011;66472;53.046;8.656;2023-05-10T16:37:48;6.70;;;6.40;;
77402;SDS011;66472;53.046;8.656;2023-05-10T16:42:43;7.83;;;7.33;;
77402;SDS011;66472;53.046;8.656;2023-05-10T16:47:39;7.00;;;6.50;;
77402;SDS011;66472;53.046;8.656;2023-05-10T16:52:34;7.73;;;7.13;;
77402;SDS011;66472;53.046;8.656;2023-05-10T16:57:30;7.77;;;7.30;;
77402;SDS011;66472;53.046;8.656;2023-05-10T17:02:26;11.47;;;10.87;;
77402;SDS011;66472;53.046;8.656;2023-05-10T17:07:22;5.63;;;5.33;;
77402;SDS011;66472;53.046;8.656;2023-05-10T17:12:17;6.95;;;6.55;;
77402;SDS011;66472;53.046;8.656;2023-05-10T17:17:12;7.35;;;6.65;;
77402;SDS011;66472;53.046;8.656;2023-05-10T17:22:08;6.80;;;6.40;;
77402;SDS011;66472;53.046;8.656;2023-05-10T17:27:04;7.30;;;6.70;;
77402;SDS011;66472;53.046;8.656;2023-05-10T17:31:59;7.53;;;7.03;;
77402;SDS011;66472;53.046;8.656;2023-05-10T17:36:54;10.07;;;9.48;;
77402;SDS011;66472;53.046;8.656;2023-05-10T17:41:50;6.93;;;6.43;;
77402;SDS011;66472;53.046;8.656;2023-05-10T17:46:45;7.87;;;7.27;;
77402;SDS011;66472;53.046;8.656;2023-05-10T17:51:40;9.90;;;9.30;;
77402;SDS011;66472;53.046;8.656;2023-05-10T17:56:38;8.27;;;7.67;;
77402;SDS011;66472;53.046;8.656;2023-05-10T18:01:33;7.83;;;7.23;;
77402;SDS011;66472;53.046;8.656;2023-05-10T18:06:28;10.57;;;9.83;;
77402;SDS011;66472;53.046;8.656;2023-05-10T18:11:24;9.43;;;8.83;;
77402;SDS011;66472;53.046;8.656;2023-05-10T18:16:20;10.47;;;9.83;;
77402;SDS011;66472;53.046;8.656;2023-05-10T18:21:15;11.67;;;11.00;;
77402;SDS011;66472;53.046;8.656;2023-05-10T18:26:11;10.83;;;9.83;;
77402;SDS011;66472;53.046;8.656;2023-05-10T18:31:07;9.07;;;8.57;;
77402;SDS011;66472;53.046;8.656;2023-05-10T18:36:02;10.57;;;9.73;;
77402;SDS011;66472;53.046;8.656;2023-05-10T18:40:58;10.27;;;9.57;;
77402;SDS011;66472;53.046;8.656;2023-05-10T18:45:53;8.60;;;8.10;;
77402;SDS011;66472;53.046;8.656;2023-05-10T18:50:48;10.45;;;8.93;;
77402;SDS011;66472;53.046;8.656;2023-05-10T18:55:44;10.63;;;9.87;;
77402;SDS011;66472;53.046;8.656;2023-05-10T19:00:39;12.40;;;11.53;;
77402;SDS011;66472;53.046;8.656;2023-05-10T19:05:34;11.83;;;10.93;;
77402;SDS011;66472;53.046;8.656;2023-05-10T19:10:30;12.73;;;11.83;;
77402;SDS011;66472;53.046;8.656;2023-05-10T19:15:25;12.53;;;11.67;;
77402;SDS011;66472;53.046;8.656;2023-05-10T19:20:21;13.97;;;13.03;;
77402;SDS011;66472;53.046;8.656;2023-05-10T19:25:16;12.85;;;12.05;;
77402;SDS011;66472;53.046;8.656;2023-05-10T19:30:11;13.23;;;12.33;;
77402;SDS011;66472;53.046;8.656;2023-05-10T19:35:07;12.17;;;11.27;;
77402;SDS011;66472;53.046;8.656;2023-05-10T19:40:03;12.40;;;11.53;;
77402;SDS011;66472;53.046;8.656;2023-05-10T19:44:58;14.67;;;13.30;;
77402;SDS011;66472;53.046;8.656;2023-05-10T19:49:54;13.63;;;12.60;;
77402;SDS011;66472;53.046;8.656;2023-05-10T19:54:49;13.65;;;12.80;;
77402;SDS011;66472;53.046;8.656;2023-05-10T19:59:44;13.32;;;12.43;;
77402;SDS011;66472;53.046;8.656;2023-05-10T20:04:39;13.07;;;12.05;;
77402;SDS011;66472;53.046;8.656;2023-05-10T20:09:35;13.63;;;12.52;;
77402;SDS011;66472;53.046;8.656;2023-05-10T20:14:30;13.07;;;11.98;;
77402;SDS011;66472;53.046;8.656;2023-05-10T20:19:26;12.80;;;11.90;;
77402;SDS011;66472;53.046;8.656;2023-05-10T20:24:21;11.98;;;11.18;;
77402;SDS011;66472;53.046;8.656;2023-05-10T20:29:16;13.17;;;12.00;;
77402;SDS011;66472;53.046;8.656;2023-05-10T20:34:12;13.57;;;12.50;;
77402;SDS011;66472;53.046;8.656;2023-05-10T20:39:07;13.07;;;12.17;;
77402;SDS011;66472;53.046;8.656;2023-05-10T20:44:03;13.13;;;11.87;;
77402;SDS011;66472;53.046;8.656;2023-05-10T20:48:59;12.70;;;11.70;;
77402;SDS011;66472;53.046;8.656;2023-05-10T20:53:55;13.77;;;12.50;;
77402;SDS011;66472;53.046;8.656;2023-05-10T20:58:51;15.63;;;14.33;;
77402;SDS011;66472;53.046;8.656;2023-05-10T21:03:46;13.48;;;12.38;;
77402;SDS011;66472;53.046;8.656;2023-05-10T21:08:42;13.83;;;12.43;;
77402;SDS011;66472;53.046;8.656;2023-05-10T21:13:37;13.60;;;12.60;;
77402;SDS011;66472;53.046;8.656;2023-05-10T21:18:32;14.23;;;12.93;;
77402;SDS011;66472;53.046;8.656;2023-05-10T21:23:27;17.00;;;15.57;;
77402;SDS011;66472;53.046;8.656;2023-05-10T21:28:23;19.33;;;17.27;;
77402;SDS011;66472;53.046;8.656;2023-05-10T21:33:18;16.23;;;15.07;;
77402;SDS011;66472;53.046;8.656;2023-05-10T21:38:13;17.00;;;15.70;;
77402;SDS011;66472;53.046;8.656;2023-05-10T21:43:09;17.23;;;15.70;;
77402;SDS011;66472;53.046;8.656;2023-05-10T21:48:05;17.70;;;16.20;;
77402;SDS011;66472;53.046;8.656;2023-05-10T21:53:00;15.93;;;14.67;;
77402;SDS011;66472;53.046;8.656;2023-05-10T21:57:56;13.93;;;12.93;;
77402;SDS011;66472;53.046;8.656;2023-05-10T22:02:51;14.10;;;13.00;;
77402;SDS011;66472;53.046;8.656;2023-05-10T22:07:47;15.63;;;14.63;;
77402;SDS011;66472;53.046;8.656;2023-05-10T22:12:42;16.03;;;14.83;;
77402;SDS011;66472;53.046;8.656;2023-05-10T22:17:38;14.10;;;13.02;;
77402;SDS011;66472;53.046;8.656;2023-05-10T22:22:34;16.33;;;15.03;;
77402;SDS011;66472;53.046;8.656;2023-05-10T22:27:29;17.70;;;16.40;;
77402;SDS011;66472;53.046;8.656;2023-05-10T22:32:24;18.23;;;16.53;;
77402;SDS011;66472;53.046;8.656;2023-05-10T22:37:20;15.67;;;14.37;;
77402;SDS011;66472;53.046;8.656;2023-05-10T22:42:15;18.60;;;17.23;;
77402;SDS011;66472;53.046;8.656;2023-05-10T22:47:10;15.55;;;14.15;;
77402;SDS011;66472;53.046;8.656;2023-05-10T22:52:06;19.83;;;18.13;;
77402;SDS011;66472;53.046;8.656;2023-05-10T22:57:01;20.37;;;18.93;;
77402;SDS011;66472;53.046;8.656;2023-05-10T23:01:56;19.40;;;18.10;;
77402;SDS011;66472;53.046;8.656;2023-05-10T23:06:51;22.02;;;20.45;;
77402;SDS011;66472;53.046;8.656;2023-05-10T23:11:47;23.47;;;21.60;;
77402;SDS011;66472;53.046;8.656;2023-05-10T23:16:42;23.37;;;21.73;;
77402;SDS011;66472;53.046;8.656;2023-05-10T23:21:38;23.83;;;21.83;;
77402;SDS011;66472;53.046;8.656;2023-05-10T23:26:33;25.47;;;23.47;;
77402;SDS011;66472;53.046;8.656;2023-05-10T23:31:29;21.43;;;19.93;;
77402;SDS011;66472;53.046;8.656;2023-05-10T23:36:24;22.73;;;21.13;;
77402;SDS011;66472;53.046;8.656;2023-05-10T23:41:19;21.80;;;20.30;;
77402;SDS011;66472;53.046;8.656;2023-05-10T23:46:15;24.63;;;22.90;;
77402;SDS011;66472;53.046;8.656;2023-05-10T23:51:10;24.67;;;22.77;;
77402;SDS011;66472;53.046;8.656;2023-05-10T23:56:05;23.63;;;21.80;;
